Time;durP1;ratioP1;P1;durP2;ratioP2;P2;SDS_P1;SDS_P2;PMS_P1;PMS_P2;Temp;Humidity;BMP_temperature;BMP_pressure;BME280_temperature;BME280_humidity;BME280_pressure;Samples;Min_cycle;Max_cycle;Signal;HPM_P1;HPM_P2
2023/05/01 00:00:54;;;;;;;4.95;2.50;;;8.20;99.90;;;;;;5075114;28;20454;-76
2023/05/01 00:03:20;;;;;;;5.22;2.75;;;8.20;99.90;;;;;;5075251;28;20056;-76
2023/05/01 00:05:46;;;;;;;4.85;3.10;;;8.10;99.90;;;;;;5073389;28;20028;-76
2023/05/01 00:08:12;;;;;;;6.55;2.92;;;8.10;99.90;;;;;;5075320;28;20028;-76
2023/05/01 00:10:38;;;;;;;4.78;2.80;;;8.10;99.90;;;;;;5075083;28;20028;-76
2023/05/01 00:13:04;;;;;;;4.03;2.67;;;8.00;99.90;;;;;;5075280;28;20512;-76
2023/05/01 00:15:30;;;;;;;4.43;2.88;;;8.00;99.90;;;;;;5074679;28;20052;-76
2023/05/01 00:17:57;;;;;;;6.30;3.20;;;7.90;99.90;;;;;;5075162;28;20111;-76
2023/05/01 00:20:27;;;;;;;4.07;2.72;;;7.90;99.90;;;;;;5081567;28;20038;-76
2023/05/01 00:22:52;;;;;;;3.00;2.17;;;7.90;99.90;;;;;;5092273;28;20162;-76
2023/05/01 00:25:18;;;;;;;3.28;2.53;;;7.80;99.90;;;;;;5073695;28;20051;-76
2023/05/01 00:27:44;;;;;;;4.03;2.40;;;7.80;99.90;;;;;;5073547;28;20039;-77
2023/05/01 00:30:10;;;;;;;4.93;2.95;;;7.70;99.90;;;;;;5088494;28;20090;-76
2023/05/01 00:32:37;;;;;;;4.88;3.05;;;7.60;99.90;;;;;;5093459;28;20097;-76
2023/05/01 00:35:06;;;;;;;6.20;3.35;;;7.40;99.90;;;;;;5088009;28;20474;-76
2023/05/01 00:37:32;;;;;;;5.53;2.63;;;7.30;99.90;;;;;;5077551;28;20039;-77
2023/05/01 00:39:58;;;;;;;4.18;2.90;;;7.30;99.90;;;;;;5075320;28;20523;-76
2023/05/01 00:42:23;;;;;;;7.18;3.10;;;7.30;99.90;;;;;;5085421;28;20107;-76
2023/05/01 00:44:49;;;;;;;5.47;3.00;;;7.30;99.90;;;;;;5085571;28;20089;-76
2023/05/01 00:47:15;;;;;;;5.45;2.90;;;7.30;99.90;;;;;;5081613;28;20436;-76
2023/05/01 00:49:45;;;;;;;4.78;3.30;;;7.30;99.90;;;;;;5081869;28;20278;-76
2023/05/01 00:52:10;;;;;;;4.93;2.90;;;7.40;99.90;;;;;;5078957;28;20392;-76
2023/05/01 00:54:36;;;;;;;3.70;2.67;;;7.40;99.90;;;;;;5082346;28;20114;-76
2023/05/01 00:57:02;;;;;;;3.80;2.72;;;7.40;99.90;;;;;;5083837;28;20036;-76
2023/05/01 00:59:28;;;;;;;4.70;2.78;;;7.30;99.90;;;;;;5082213;28;20108;-76
2023/05/01 01:01:54;;;;;;;4.13;2.55;;;7.40;99.90;;;;;;5084090;28;20031;-76
2023/05/01 01:04:20;;;;;;;4.82;3.17;;;7.40;99.90;;;;;;5074975;28;20078;-76
2023/05/01 01:07:04;;;;;;;3.75;2.75;;;7.30;99.90;;;;;;5083894;28;20081;-75
2023/05/01 01:09:37;;;;;;;5.85;2.67;;;7.30;99.90;;;;;;5079277;28;20021;-76
2023/05/01 01:12:38;;;;;;;5.50;3.30;;;7.30;99.90;;;;;;5086006;28;20099;-76
2023/05/01 01:15:17;;;;;;;13.35;5.85;;;7.30;99.90;;;;;;5074130;28;20029;-76
2023/05/01 01:18:08;;;;;;;14.50;5.60;;;7.30;99.90;;;;;;5084575;28;20364;-76
2023/05/01 01:20:43;;;;;;;11.77;5.25;;;7.20;99.90;;;;;;5083133;28;20119;-76
2023/05/01 01:23:46;;;;;;;13.70;5.47;;;7.20;99.90;;;;;;5080459;28;20036;-76
2023/05/01 01:26:32;;;;;;;8.00;3.83;;;7.20;99.90;;;;;;5078281;28;20041;-76
2023/05/01 01:29:16;;;;;;;6.25;3.22;;;7.10;99.90;;;;;;5085286;28;20024;-77
2023/05/01 01:32:11;;;;;;;4.03;2.97;;;7.00;99.90;;;;;;5083608;28;20026;-77
2023/05/01 01:35:05;;;;;;;6.32;2.88;;;7.00;99.90;;;;;;5076241;28;20025;-77
2023/05/01 01:37:46;;;;;;;4.38;3.00;;;7.00;99.90;;;;;;5083636;28;20025;-76
2023/05/01 01:40:15;;;;;;;5.78;3.08;;;6.90;99.90;;;;;;5077591;28;20103;-77
2023/05/01 01:42:51;;;;;;;7.20;2.90;;;6.80;99.90;;;;;;5081764;28;20089;-77
2023/05/01 01:45:38;;;;;;;6.68;2.80;;;6.80;99.90;;;;;;5077964;28;20491;-76
2023/05/01 01:48:08;;;;;;;3.92;2.53;;;6.80;99.90;;;;;;5082113;28;20062;-76
2023/05/01 01:50:36;;;;;;;4.43;2.90;;;6.80;99.90;;;;;;5074951;28;20365;-76
2023/05/01 01:53:04;;;;;;;4.60;3.00;;;6.80;99.90;;;;;;5073601;28;20373;-76
2023/05/01 01:55:33;;;;;;;4.30;2.53;;;6.70;99.90;;;;;;5077613;28;20472;-76
2023/05/01 01:58:01;;;;;;;4.53;3.33;;;6.80;99.90;;;;;;5082427;28;20025;-76
2023/05/01 02:00:28;;;;;;;4.65;2.80;;;6.70;99.90;;;;;;5089563;28;20476;-76
2023/05/01 02:02:55;;;;;;;5.45;3.22;;;6.70;99.90;;;;;;5093714;28;20030;-76
2023/05/01 02:05:22;;;;;;;4.00;2.72;;;6.70;99.90;;;;;;5073586;28;20054;-76
2023/05/01 02:07:50;;;;;;;4.18;2.72;;;6.70;99.90;;;;;;5088770;28;20067;-77
2023/05/01 02:10:18;;;;;;;4.55;3.08;;;6.70;99.90;;;;;;5091213;28;20432;-76
2023/05/01 02:12:47;;;;;;;5.05;3.45;;;6.60;99.90;;;;;;5080026;28;20510;-76
2023/05/01 02:15:17;;;;;;;7.60;5.05;;;6.60;99.90;;;;;;5090219;28;20361;-76
2023/05/01 02:17:43;;;;;;;15.98;8.75;;;6.60;99.90;;;;;;5091855;28;20075;-76
2023/05/01 02:20:11;;;;;;;14.77;8.90;;;6.60;99.90;;;;;;5088867;28;20036;-77
2023/05/01 02:22:41;;;;;;;18.13;9.68;;;6.60;99.90;;;;;;5082771;28;20128;-76
2023/05/01 02:25:11;;;;;;;12.75;7.50;;;6.60;99.90;;;;;;5083657;28;20086;-76
2023/05/01 02:27:47;;;;;;;12.77;7.80;;;6.50;99.90;;;;;;5085888;28;20024;-76
2023/05/01 02:30:13;;;;;;;8.85;6.00;;;6.50;99.90;;;;;;5091325;28;20027;-76
2023/05/01 02:32:38;;;;;;;6.68;5.53;;;6.50;99.90;;;;;;5094804;28;20027;-76
2023/05/01 02:35:04;;;;;;;5.88;4.32;;;6.50;99.90;;;;;;5076702;28;20119;-75
2023/05/01 02:37:31;;;;;;;4.63;3.80;;;6.50;99.90;;;;;;5088046;28;20484;-76
2023/05/01 02:39:57;;;;;;;4.65;3.00;;;6.50;99.90;;;;;;5079264;28;20016;-76
2023/05/01 02:42:25;;;;;;;4.20;2.90;;;6.50;99.90;;;;;;5086452;28;20020;-76
2023/05/01 02:44:56;;;;;;;4.15;3.10;;;6.50;99.90;;;;;;5076712;28;20046;-76
2023/05/01 02:47:23;;;;;;;;;;;6.40;99.90;;;;;;5084835;28;20055;-76
2023/05/01 02:49:50;;;;;;;4.15;2.80;;;6.40;99.90;;;;;;5097212;28;20002;-77
2023/05/01 02:52:17;;;;;;;3.95;2.55;;;6.40;99.90;;;;;;5085709;28;20039;-76
2023/05/01 02:54:44;;;;;;;4.68;3.15;;;6.40;99.90;;;;;;5076798;28;20484;-76
2023/05/01 02:57:11;;;;;;;5.28;2.95;;;6.40;99.90;;;;;;5076795;28;20039;-76
2023/05/01 02:59:37;;;;;;;5.60;3.65;;;6.30;99.90;;;;;;5081090;28;20469;-76
2023/05/01 03:02:02;;;;;;;6.45;4.30;;;6.30;99.90;;;;;;5090008;28;20043;-76
2023/05/01 03:04:28;;;;;;;4.80;3.33;;;6.30;99.90;;;;;;5085455;28;20032;-76
2023/05/01 03:06:54;;;;;;;5.28;3.22;;;6.30;99.90;;;;;;5076353;28;20033;-77
2023/05/01 03:09:21;;;;;;;8.55;3.40;;;6.20;99.90;;;;;;5076195;28;20389;-77
2023/05/01 03:11:47;;;;;;;4.72;3.15;;;6.00;99.90;;;;;;5076167;28;20029;-77
2023/05/01 03:14:12;;;;;;;4.85;3.35;;;6.00;99.90;;;;;;5079449;28;20156;-76
2023/05/01 03:16:39;;;;;;;3.83;2.97;;;6.00;99.90;;;;;;5082645;28;20040;-77
2023/05/01 03:19:05;;;;;;;5.60;3.10;;;6.00;99.90;;;;;;5083348;28;20039;-77
2023/05/01 03:21:31;;;;;;;4.72;3.20;;;6.00;99.90;;;;;;5084935;28;20744;-76
2023/05/01 03:23:57;;;;;;;4.35;2.90;;;6.00;99.90;;;;;;5081118;28;20056;-76
2023/05/01 03:26:23;;;;;;;3.92;2.90;;;5.90;99.90;;;;;;5082021;28;20082;-76
2023/05/01 03:28:49;;;;;;;4.10;2.85;;;6.00;99.90;;;;;;5085980;28;20028;-77
2023/05/01 03:31:14;;;;;;;5.65;3.25;;;6.00;99.90;;;;;;5078727;28;20029;-77
2023/05/01 03:33:40;;;;;;;4.25;2.78;;;6.00;99.90;;;;;;5075600;28;20055;-77
2023/05/01 03:36:08;;;;;;;4.75;2.95;;;6.00;99.90;;;;;;5083969;28;20103;-77
2023/05/01 03:38:34;;;;;;;4.25;3.25;;;6.00;99.90;;;;;;5078647;28;20024;-77
2023/05/01 03:41:00;;;;;;;5.05;3.17;;;5.90;99.90;;;;;;5079832;28;20396;-76
2023/05/01 03:43:26;;;;;;;4.43;3.25;;;5.90;99.90;;;;;;5081033;28;20043;-77
2023/05/01 03:45:52;;;;;;;5.43;3.85;;;5.90;99.90;;;;;;5086204;28;20055;-77
2023/05/01 03:48:19;;;;;;;6.35;3.70;;;5.90;99.90;;;;;;5095113;28;20492;-77
2023/05/01 03:50:45;;;;;;;5.20;3.50;;;5.90;99.90;;;;;;5082647;28;20029;-77
2023/05/01 03:53:12;;;;;;;5.28;3.80;;;5.90;99.90;;;;;;5072977;28;20020;-77
2023/05/01 03:55:38;;;;;;;6.97;4.57;;;5.80;99.90;;;;;;5095727;28;20028;-77
2023/05/01 03:58:05;;;;;;;8.48;5.65;;;5.80;99.90;;;;;;5080169;28;20055;-77
2023/05/01 04:00:32;;;;;;;7.65;5.47;;;5.80;99.90;;;;;;5092888;28;20032;-77
2023/05/01 04:02:57;;;;;;;10.23;6.15;;;5.80;99.90;;;;;;5089448;28;20111;-77
2023/05/01 04:05:23;;;;;;;6.80;4.57;;;5.80;99.90;;;;;;5075564;28;20068;-77
2023/05/01 04:07:49;;;;;;;6.30;4.43;;;5.80;99.90;;;;;;5074662;28;20029;-77
2023/05/01 04:10:15;;;;;;;5.32;3.60;;;5.70;99.90;;;;;;5074955;28;20032;-77
2023/05/01 04:12:42;;;;;;;5.63;3.88;;;5.80;99.90;;;;;;5073924;28;20066;-76
2023/05/01 04:15:08;;;;;;;5.13;3.28;;;5.70;99.90;;;;;;5078859;28;20403;-76
2023/05/01 04:17:35;;;;;;;7.78;3.53;;;5.70;99.90;;;;;;5088422;28;20020;-76
2023/05/01 04:20:01;;;;;;;5.03;3.30;;;5.70;99.90;;;;;;5083756;28;20026;-76
2023/05/01 04:22:26;;;;;;;5.05;3.20;;;5.70;99.90;;;;;;5083361;28;20395;-76
2023/05/01 04:24:53;;;;;;;4.93;3.00;;;5.70;99.90;;;;;;5086774;28;20599;-76
2023/05/01 04:27:19;;;;;;;5.38;3.80;;;5.70;99.90;;;;;;5083354;28;20415;-75
2023/05/01 04:29:45;;;;;;;6.82;4.97;;;5.70;99.90;;;;;;5086422;28;20029;-77
2023/05/01 04:32:10;;;;;;;6.57;5.18;;;5.70;99.90;;;;;;5085091;28;20069;-76
2023/05/01 04:34:36;;;;;;;5.25;3.55;;;5.70;99.90;;;;;;5076013;28;20020;-76
2023/05/01 04:37:02;;;;;;;5.50;3.38;;;5.60;99.90;;;;;;5084633;28;20029;-77
2023/05/01 04:39:28;;;;;;;4.93;3.13;;;5.70;99.90;;;;;;5075109;28;20102;-77
2023/05/01 04:41:54;;;;;;;7.05;3.42;;;5.60;99.90;;;;;;5077953;28;20471;-77
2023/05/01 04:44:19;;;;;;;4.65;3.05;;;5.70;99.90;;;;;;5078726;28;20051;-76
2023/05/01 04:46:45;;;;;;;5.93;3.30;;;5.70;99.90;;;;;;5080082;28;20025;-76
2023/05/01 04:49:11;;;;;;;4.68;3.15;;;5.60;99.90;;;;;;5080327;28;20033;-76
2023/05/01 04:51:37;;;;;;;5.05;3.15;;;5.60;99.90;;;;;;5080954;28;20028;-76
2023/05/01 04:54:03;;;;;;;5.10;3.30;;;5.60;99.90;;;;;;5085287;28;20020;-77
2023/05/01 04:56:29;;;;;;;5.47;2.85;;;5.60;99.90;;;;;;5080985;28;20029;-77
2023/05/01 04:58:55;;;;;;;5.60;3.38;;;5.60;99.90;;;;;;5077939;28;20031;-76
2023/05/01 05:01:21;;;;;;;5.68;3.35;;;5.70;99.90;;;;;;5084324;28;20044;-77
2023/05/01 05:03:46;;;;;;;5.30;2.80;;;5.70;99.90;;;;;;5077079;28;20036;-77
2023/05/01 05:06:12;;;;;;;5.20;3.25;;;5.70;99.90;;;;;;5081080;28;20036;-76
2023/05/01 05:08:38;;;;;;;4.10;3.05;;;5.80;99.90;;;;;;5085478;28;20033;-76
2023/05/01 05:11:03;;;;;;;8.45;4.28;;;5.80;99.90;;;;;;5073859;28;20036;-76
2023/05/01 05:13:29;;;;;;;5.45;3.25;;;5.80;99.90;;;;;;5073016;28;20070;-76
2023/05/01 05:15:54;;;;;;;5.50;3.67;;;5.90;99.90;;;;;;5072375;28;20036;-76
2023/05/01 05:18:20;;;;;;;5.40;4.13;;;5.90;99.90;;;;;;5090589;28;20488;-77
2023/05/01 05:20:46;;;;;;;5.65;3.80;;;6.00;99.90;;;;;;5093019;28;20032;-77
2023/05/01 05:23:12;;;;;;;5.28;3.75;;;6.10;99.90;;;;;;5094341;28;20515;-77
2023/05/01 05:25:37;;;;;;;5.65;4.38;;;6.10;99.90;;;;;;5076677;28;20103;-77
2023/05/01 05:28:03;;;;;;;6.72;3.90;;;6.20;99.90;;;;;;5073731;28;20036;-77
2023/05/01 05:30:29;;;;;;;7.60;4.15;;;6.30;99.90;;;;;;5090387;28;20032;-77
2023/05/01 05:32:55;;;;;;;6.25;3.92;;;6.30;99.90;;;;;;5079689;28;20028;-77
2023/05/01 05:35:21;;;;;;;7.65;5.13;;;6.30;99.90;;;;;;5073992;28;20048;-77
2023/05/01 05:37:47;;;;;;;6.57;4.13;;;6.40;99.90;;;;;;5073457;28;20075;-76
2023/05/01 05:40:12;;;;;;;7.82;4.95;;;6.40;99.90;;;;;;5073509;28;20515;-77
2023/05/01 05:42:38;;;;;;;9.73;6.18;;;6.50;99.90;;;;;;5072623;28;20492;-77
2023/05/01 05:45:05;;;;;;;8.77;4.80;;;6.60;99.90;;;;;;5073402;28;20503;-77
2023/05/01 05:47:30;;;;;;;10.35;6.03;;;6.70;99.90;;;;;;5080413;28;20021;-77
2023/05/01 05:49:56;;;;;;;19.80;10.10;;;6.70;99.90;;;;;;5075359;28;20032;-77
2023/05/01 05:52:22;;;;;;;12.95;7.97;;;6.80;99.90;;;;;;5081553;28;20028;-77
2023/05/01 05:54:48;;;;;;;40.90;21.95;;;6.90;99.90;;;;;;5080682;28;20108;-76
2023/05/01 05:57:14;;;;;;;17.08;9.15;;;7.00;99.90;;;;;;5076773;28;20059;-76
2023/05/01 05:59:39;;;;;;;18.45;15.63;;;7.10;99.90;;;;;;5080777;28;20063;-77
2023/05/01 06:02:05;;;;;;;10.43;7.30;;;7.20;99.90;;;;;;5072132;28;20036;-75
2023/05/01 06:04:31;;;;;;;12.82;9.90;;;7.20;99.90;;;;;;5077367;28;20025;-77
2023/05/01 06:06:58;;;;;;;12.70;8.35;;;7.30;99.90;;;;;;5078619;28;20016;-77
2023/05/01 06:09:25;;;;;;;10.30;6.72;;;7.40;99.90;;;;;;5075223;28;20497;-77
2023/05/01 06:11:50;;;;;;;9.55;6.00;;;7.50;99.90;;;;;;5080543;28;20477;-77
2023/05/01 06:14:16;;;;;;;13.23;9.27;;;7.60;99.90;;;;;;5077177;28;20043;-76
2023/05/01 06:16:42;;;;;;;10.90;8.38;;;7.70;99.90;;;;;;5074598;28;20118;-77
2023/05/01 06:19:10;;;;;;;15.15;8.82;;;7.80;99.90;;;;;;5073562;28;20496;-77
2023/05/01 06:21:36;;;;;;;10.30;5.93;;;7.90;99.90;;;;;;5083068;28;20039;-77
2023/05/01 06:24:02;;;;;;;8.77;6.80;;;8.00;99.90;;;;;;5075729;28;20028;-76
2023/05/01 06:26:28;;;;;;;9.90;6.57;;;8.20;99.90;;;;;;5078163;28;20113;-77
2023/05/01 06:28:54;;;;;;;8.35;6.43;;;8.30;99.90;;;;;;5080033;28;20028;-77
2023/05/01 06:31:20;;;;;;;10.00;7.20;;;8.40;99.90;;;;;;5077924;28;20028;-77
2023/05/01 06:33:45;;;;;;;10.23;7.28;;;8.50;99.90;;;;;;5083868;28;20029;-77
2023/05/01 06:36:11;;;;;;;11.40;7.50;;;8.60;99.90;;;;;;5084325;28;20028;-77
2023/05/01 06:38:37;;;;;;;10.50;7.82;;;8.80;99.90;;;;;;5083891;28;20900;-76
2023/05/01 06:41:06;;;;;;;10.85;6.95;;;8.80;99.90;;;;;;5077719;28;20033;-77
2023/05/01 06:43:32;;;;;;;11.55;7.35;;;8.90;99.90;;;;;;5076778;28;20036;-77
2023/05/01 06:45:58;;;;;;;11.48;7.80;;;9.00;99.90;;;;;;5077085;28;20491;-76
2023/05/01 06:48:23;;;;;;;11.20;8.80;;;9.20;99.90;;;;;;5086598;28;20028;-77
2023/05/01 06:50:49;;;;;;;15.15;9.38;;;9.40;99.90;;;;;;5092930;28;20480;-77
2023/05/01 06:53:15;;;;;;;13.52;9.88;;;9.50;99.90;;;;;;5090356;28;20030;-77
2023/05/01 06:55:41;;;;;;;13.82;9.93;;;9.60;99.90;;;;;;5091481;28;20060;-77
2023/05/01 06:58:07;;;;;;;17.58;10.85;;;9.70;99.90;;;;;;5088390;28;20043;-76
2023/05/01 07:00:36;;;;;;;15.23;10.23;;;9.80;99.90;;;;;;5081283;28;20372;-77
2023/05/01 07:03:02;;;;;;;13.63;9.88;;;9.90;99.90;;;;;;5092250;28;20491;-77
2023/05/01 07:05:29;;;;;;;13.15;8.75;;;10.10;99.90;;;;;;5074254;28;20060;-77
2023/05/01 07:07:55;;;;;;;10.93;8.23;;;10.20;99.90;;;;;;5094345;28;20028;-76
2023/05/01 07:10:20;;;;;;;12.05;8.70;;;10.20;99.90;;;;;;5095959;28;20024;-77
2023/05/01 07:12:46;;;;;;;13.45;9.40;;;10.30;99.90;;;;;;5084576;28;20155;-76
2023/05/01 07:15:15;;;;;;;12.80;9.48;;;10.50;99.90;;;;;;5095539;28;20044;-77
2023/05/01 07:17:44;;;;;;;11.73;9.48;;;10.60;99.90;;;;;;5083758;28;20077;-75
2023/05/01 07:20:11;;;;;;;10.20;8.10;;;10.60;99.90;;;;;;5085969;28;20025;-76
2023/05/01 07:22:37;;;;;;;14.23;9.73;;;10.70;99.90;;;;;;5078733;28;20020;-77
2023/05/01 07:25:02;;;;;;;13.07;8.77;;;10.80;99.90;;;;;;5087940;28;20028;-77
2023/05/01 07:27:28;;;;;;;9.38;7.68;;;10.90;99.90;;;;;;5082244;28;20048;-78
2023/05/01 07:29:55;;;;;;;11.40;8.88;;;11.00;99.90;;;;;;5090027;28;20032;-79
2023/05/01 07:32:21;;;;;;;9.95;7.85;;;11.20;99.90;;;;;;5075894;28;20016;-76
2023/05/01 07:34:47;;;;;;;8.73;6.82;;;11.30;99.90;;;;;;5085560;28;20373;-76
2023/05/01 07:37:12;;;;;;;9.50;6.43;;;11.40;99.90;;;;;;5086807;28;20029;-76
2023/05/01 07:39:38;;;;;;;9.43;7.75;;;11.50;99.90;;;;;;5093337;28;20060;-76
2023/05/01 07:42:04;;;;;;;10.60;7.57;;;11.60;99.90;;;;;;5083314;28;20028;-75
2023/05/01 07:44:30;;;;;;;9.70;7.28;;;11.80;99.90;;;;;;5077240;28;20037;-76
2023/05/01 07:47:05;;;;;;;10.55;7.57;;;11.90;99.90;;;;;;5058366;28;20029;-75
2023/05/01 07:49:37;;;;;;;9.90;6.47;;;12.00;99.90;;;;;;5076682;28;20028;-75
2023/05/01 07:52:06;;;;;;;8.60;6.20;;;12.10;99.90;;;;;;5076115;28;20523;-76
2023/05/01 07:54:32;;;;;;;9.52;6.82;;;12.20;99.90;;;;;;5076995;28;20105;-76
2023/05/01 07:56:58;;;;;;;7.93;6.03;;;12.30;99.90;;;;;;5083470;28;20021;-76
2023/05/01 07:59:24;;;;;;;9.30;5.93;;;12.40;99.90;;;;;;5095046;28;20031;-75
2023/05/01 08:01:50;;;;;;;7.00;5.65;;;12.50;99.90;;;;;;5079664;28;20168;-76
2023/05/01 08:04:17;;;;;;;8.27;6.05;;;12.60;99.90;;;;;;5081181;28;20484;-75
2023/05/01 08:06:43;;;;;;;7.47;5.40;;;12.70;99.90;;;;;;5084113;28;20484;-75
2023/05/01 08:09:09;;;;;;;7.90;5.65;;;12.90;99.90;;;;;;5084685;28;20107;-76
2023/05/01 08:11:35;;;;;;;8.50;5.72;;;13.00;99.90;;;;;;5083632;28;20154;-76
2023/05/01 08:14:01;;;;;;;8.15;6.07;;;13.10;99.90;;;;;;5084027;28;20078;-76
2023/05/01 08:16:26;;;;;;;7.45;5.75;;;13.10;99.90;;;;;;5080542;28;20032;-76
2023/05/01 08:18:52;;;;;;;7.82;6.03;;;13.20;99.90;;;;;;5082125;28;20036;-76
2023/05/01 08:21:18;;;;;;;7.88;5.70;;;13.30;99.90;;;;;;5074872;28;20032;-76
2023/05/01 08:23:43;;;;;;;8.35;5.85;;;13.40;99.90;;;;;;5074994;28;20035;-76
2023/05/01 08:26:09;;;;;;;7.28;5.30;;;13.50;99.90;;;;;;5080568;28;20028;-76
2023/05/01 08:28:35;;;;;;;7.30;5.45;;;13.60;99.90;;;;;;5094676;28;20099;-76
2023/05/01 08:31:02;;;;;;;6.95;5.43;;;13.70;99.90;;;;;;5085870;28;20028;-76
2023/05/01 08:33:28;;;;;;;6.20;4.68;;;13.80;99.90;;;;;;5076285;28;20025;-76
2023/05/01 08:35:54;;;;;;;5.80;3.80;;;13.90;99.90;;;;;;5075229;28;20025;-76
2023/05/01 08:38:19;;;;;;;5.43;3.70;;;13.90;99.90;;;;;;5074677;28;20032;-76
2023/05/01 08:40:53;;;;;;;6.40;3.78;;;14.10;99.90;;;;;;5079604;28;20391;-76
2023/05/01 08:43:19;;;;;;;5.63;3.97;;;14.20;99.90;;;;;;5078378;28;20119;-76
2023/05/01 08:45:47;;;;;;;4.82;3.65;;;14.20;99.90;;;;;;5082733;28;20545;-76
2023/05/01 08:48:16;;;;;;;5.28;3.70;;;14.40;99.90;;;;;;5082528;28;20036;-76
2023/05/01 08:50:45;;;;;;;4.65;3.58;;;14.50;99.90;;;;;;5084251;28;20036;-76
2023/05/01 08:53:12;;;;;;;5.22;4.05;;;14.60;99.90;;;;;;5080703;28;20028;-76
2023/05/01 08:55:39;;;;;;;6.40;4.88;;;14.80;99.90;;;;;;5080973;28;20023;-76
2023/05/01 08:58:07;;;;;;;6.82;5.07;;;14.90;99.90;;;;;;5081794;28;20035;-76
2023/05/01 09:00:35;;;;;;;6.10;4.50;;;15.00;99.90;;;;;;5082237;28;20035;-76
2023/05/01 09:03:04;;;;;;;5.63;4.10;;;15.20;99.90;;;;;;5081028;28;20500;-76
2023/05/01 09:05:31;;;;;;;5.15;3.60;;;15.30;99.90;;;;;;5080283;28;20040;-76
2023/05/01 09:07:58;;;;;;;5.50;3.53;;;15.40;99.90;;;;;;5084978;28;20088;-76
2023/05/01 09:10:28;;;;;;;5.95;3.88;;;15.40;99.90;;;;;;5074062;28;20431;-76
2023/05/01 09:13:00;;;;;;;4.38;3.60;;;15.60;99.90;;;;;;5074840;28;20016;-76
2023/05/01 09:15:27;;;;;;;6.07;4.53;;;15.70;99.90;;;;;;5089844;28;20036;-76
2023/05/01 09:17:54;;;;;;;5.45;3.55;;;15.80;99.90;;;;;;5092656;28;20073;-76
2023/05/01 09:20:20;;;;;;;5.78;3.00;;;15.80;99.90;;;;;;5093008;28;20081;-76
2023/05/01 09:22:46;;;;;;;4.78;3.17;;;15.90;99.90;;;;;;5092401;28;20029;-76
2023/05/01 09:25:12;;;;;;;4.68;3.05;;;16.00;99.90;;;;;;5083970;28;20035;-76
2023/05/01 09:27:38;;;;;;;4.22;3.30;;;16.20;99.90;;;;;;5083780;28;20480;-76
2023/05/01 09:30:05;;;;;;;3.45;2.45;;;16.30;99.90;;;;;;5081189;28;20123;-76
2023/05/01 09:32:31;;;;;;;2.65;2.17;;;16.40;99.90;;;;;;5082161;28;20020;-76
2023/05/01 09:35:11;;;;;;;3.13;2.00;;;16.40;99.90;;;;;;5077184;28;20029;-76
2023/05/01 09:37:37;;;;;;;2.80;2.22;;;16.50;97.60;;;;;;5073623;28;20016;-76
2023/05/01 09:40:09;;;;;;;3.95;2.28;;;16.60;96.20;;;;;;5075321;28;20381;-75
2023/05/01 09:42:51;;;;;;;4.20;2.65;;;16.70;98.00;;;;;;5078672;28;20025;-75
2023/05/01 09:45:18;;;;;;;4.10;2.50;;;16.80;98.10;;;;;;5076675;28;20025;-75
2023/05/01 09:47:47;;;;;;;3.40;2.40;;;16.90;97.80;;;;;;5076054;28;20099;-75
2023/05/01 09:50:31;;;;;;;3.90;2.40;;;16.90;97.70;;;;;;5082937;28;20488;-75
2023/05/01 09:53:00;;;;;;;3.33;2.40;;;17.00;98.10;;;;;;5087970;28;20266;-75
2023/05/01 09:55:25;;;;;;;3.22;2.33;;;17.10;97.60;;;;;;5083382;28;20033;-75
2023/05/01 09:57:51;;;;;;;3.30;2.55;;;17.20;99.10;;;;;;5083150;28;20968;-75
2023/05/01 10:00:20;;;;;;;3.58;2.83;;;17.30;95.90;;;;;;5079666;28;21752;-75
2023/05/01 10:02:47;;;;;;;5.35;3.97;;;17.50;98.20;;;;;;5081285;28;20476;-75
2023/05/01 10:05:13;;;;;;;4.10;2.88;;;17.60;98.00;;;;;;5076486;28;20039;-75
2023/05/01 10:07:55;;;;;;;3.75;2.42;;;17.70;97.60;;;;;;5083120;28;20386;-75
2023/05/01 10:10:22;;;;;;;3.78;2.42;;;17.80;96.60;;;;;;5078023;28;20051;-75
2023/05/01 10:12:48;;;;;;;2.83;2.22;;;18.00;97.10;;;;;;5078617;28;20074;-75
2023/05/01 10:15:15;;;;;;;3.08;2.10;;;18.20;96.20;;;;;;5095767;28;20087;-75
2023/05/01 10:17:42;;;;;;;3.25;2.90;;;18.30;93.60;;;;;;5089124;28;20088;-75
2023/05/01 10:20:11;;;;;;;2.72;2.10;;;18.50;93.50;;;;;;5078653;28;20040;-75
2023/05/01 10:22:40;;;;;;;2.58;1.40;;;18.60;90.80;;;;;;5077702;28;20031;-75
2023/05/01 10:25:11;;;;;;;2.75;1.73;;;18.50;85.50;;;;;;5090598;28;20468;-75
2023/05/01 10:27:39;;;;;;;2.85;1.95;;;18.60;87.30;;;;;;5097494;28;20495;-75
2023/05/01 10:30:07;;;;;;;2.45;1.67;;;18.70;90.00;;;;;;5092333;28;20488;-75
2023/05/01 10:32:34;;;;;;;2.40;1.55;;;18.70;90.50;;;;;;5087751;28;20031;-75
2023/05/01 10:35:03;;;;;;;2.92;1.50;;;18.70;88.00;;;;;;5082510;28;20025;-74
2023/05/01 10:37:47;;;;;;;2.00;1.45;;;18.70;92.70;;;;;;5074268;28;20020;-74
2023/05/01 10:40:38;;;;;;;3.67;1.45;;;18.90;90.90;;;;;;5079031;28;20013;-75
2023/05/01 10:43:14;;;;;;;2.63;1.53;;;18.90;85.40;;;;;;5085784;28;20032;-75
2023/05/01 10:45:41;;;;;;;2.08;1.27;;;19.00;88.70;;;;;;5081257;28;20150;-75
2023/05/01 10:48:07;;;;;;;3.90;1.77;;;19.10;87.20;;;;;;5081876;28;20036;-75
2023/05/01 10:50:33;;;;;;;1.85;1.15;;;19.10;85.90;;;;;;5085617;28;20028;-75
2023/05/01 10:53:14;;;;;;;4.10;1.50;;;19.20;86.70;;;;;;5077122;28;20024;-75
2023/05/01 10:55:44;;;;;;;2.97;1.40;;;19.30;84.00;;;;;;5080734;28;20104;-75
2023/05/01 10:58:37;;;;;;;3.33;1.27;;;19.30;84.00;;;;;;5085570;28;20036;-75
2023/05/01 11:01:29;;;;;;;3.85;1.27;;;19.50;85.50;;;;;;5077308;28;20024;-75
2023/05/01 11:03:59;;;;;;;1.95;1.20;;;19.50;83.30;;;;;;5079663;28;20369;-75
2023/05/01 11:06:28;;;;;;;2.70;1.08;;;19.30;80.20;;;;;;5076740;28;20113;-75
2023/05/01 11:08:55;;;;;;;2.20;1.35;;;19.30;82.20;;;;;;5086899;28;20033;-75
2023/05/01 11:11:20;;;;;;;4.15;1.27;;;19.40;82.50;;;;;;5084522;28;20049;-75
2023/05/01 11:13:55;;;;;;;16.38;2.38;;;19.40;78.40;;;;;;5092973;28;20052;-75
2023/05/01 11:16:36;;;;;;;3.47;1.40;;;19.30;80.40;;;;;;5076028;28;20074;-75
2023/05/01 11:19:22;;;;;;;2.75;1.60;;;19.30;80.40;;;;;;5076223;28;20029;-75
2023/05/01 11:21:49;;;;;;;3.28;1.65;;;19.40;79.30;;;;;;5075847;28;20090;-75
2023/05/01 11:24:17;;;;;;;2.85;1.75;;;19.50;81.20;;;;;;5079750;28;20024;-75
2023/05/01 11:26:43;;;;;;;2.47;1.38;;;19.60;80.60;;;;;;5082205;28;20040;-75
2023/05/01 11:29:10;;;;;;;2.00;1.33;;;19.50;78.80;;;;;;5098502;28;20028;-75
2023/05/01 11:31:37;;;;;;;1.73;1.20;;;19.40;79.10;;;;;;5081996;28;20031;-75
2023/05/01 11:34:03;;;;;;;2.47;1.40;;;19.40;80.90;;;;;;5082299;28;20028;-75
2023/05/01 11:36:48;;;;;;;2.55;1.42;;;19.50;82.40;;;;;;5086219;28;20078;-74
2023/05/01 11:39:16;;;;;;;2.45;1.60;;;19.50;81.00;;;;;;5089609;28;20028;-75
2023/05/01 11:41:42;;;;;;;2.28;1.30;;;19.60;80.20;;;;;;5096028;28;20396;-75
2023/05/01 11:44:10;;;;;;;1.40;1.00;;;19.60;80.00;;;;;;5095971;28;20020;-75
2023/05/01 11:46:35;;;;;;;2.40;1.35;;;19.70;77.50;;;;;;5094929;28;20085;-75
2023/05/01 11:49:02;;;;;;;2.13;1.30;;;19.60;77.10;;;;;;5095510;28;20040;-75
2023/05/01 11:51:28;;;;;;;3.63;1.60;;;19.60;78.60;;;;;;5095832;28;20027;-76
2023/05/01 11:54:01;;;;;;;1.98;1.30;;;19.70;79.50;;;;;;5078452;28;20020;-75
2023/05/01 11:56:28;;;;;;;3.22;1.73;;;19.50;75.60;;;;;;5075705;28;20485;-75
2023/05/01 11:59:17;;;;;;;3.50;1.60;;;19.30;80.50;;;;;;5082644;28;20032;-76
2023/05/01 12:01:45;;;;;;;3.38;1.73;;;19.20;80.70;;;;;;5114952;28;20487;-75
2023/05/01 12:04:11;;;;;;;2.85;1.88;;;19.10;84.00;;;;;;5095035;28;20562;-75
2023/05/01 12:06:43;;;;;;;2.80;1.80;;;18.80;84.50;;;;;;5075372;28;20025;-75
2023/05/01 12:09:14;;;;;;;3.80;1.70;;;18.70;86.50;;;;;;5095718;28;20030;-75
2023/05/01 12:11:41;;;;;;;2.97;2.00;;;18.50;86.70;;;;;;5095645;28;20103;-75
2023/05/01 12:14:07;;;;;;;3.00;2.00;;;18.50;89.00;;;;;;5095782;28;20070;-76
2023/05/01 12:16:34;;;;;;;4.18;1.92;;;18.60;90.00;;;;;;5095277;28;20434;-75
2023/05/01 12:19:00;;;;;;;2.97;1.80;;;18.60;88.90;;;;;;5095058;28;20073;-75
2023/05/01 12:21:27;;;;;;;4.10;1.80;;;18.60;88.50;;;;;;5094028;28;20032;-75
2023/05/01 12:23:57;;;;;;;2.65;1.70;;;18.40;89.10;;;;;;5095023;28;20128;-75
2023/05/01 12:26:26;;;;;;;3.95;2.22;;;18.40;90.10;;;;;;5095440;28;20020;-75
2023/05/01 12:28:57;;;;;;;4.07;1.70;;;18.40;90.00;;;;;;5098291;28;20030;-75
2023/05/01 12:31:24;;;;;;;3.25;1.77;;;18.40;89.90;;;;;;5114011;28;20379;-75
2023/05/01 12:34:03;;;;;;;2.60;1.80;;;18.30;90.30;;;;;;5088951;28;20020;-75
2023/05/01 12:36:31;;;;;;;3.15;1.85;;;18.20;90.50;;;;;;5079112;28;20016;-75
2023/05/01 12:39:02;;;;;;;3.10;2.25;;;18.20;89.80;;;;;;5086645;28;20024;-75
2023/05/01 12:41:40;;;;;;;3.60;2.17;;;18.10;90.40;;;;;;5084378;28;20027;-75
2023/05/01 12:44:26;;;;;;;2.92;2.10;;;17.90;90.80;;;;;;5076140;28;20031;-75
2023/05/01 12:47:07;;;;;;;3.20;1.90;;;17.80;91.40;;;;;;5074176;28;20048;-75
2023/05/01 12:49:37;;;;;;;3.35;2.10;;;17.80;91.10;;;;;;5074390;28;20567;-75
2023/05/01 12:52:06;;;;;;;3.13;2.30;;;17.80;90.20;;;;;;5080264;28;20037;-76
2023/05/01 12:54:39;;;;;;;3.58;1.83;;;17.80;91.20;;;;;;5085168;28;21052;-75
2023/05/01 12:57:09;;;;;;;2.83;2.03;;;17.70;91.20;;;;;;5081881;28;20051;-75